Time;durP1;ratioP1;P1;durP2;ratioP2;P2;SDS_P1;SDS_P2;PMS_P1;PMS_P2;Temp;Humidity;BMP_temperature;BMP_pressure;BME280_temperature;BME280_humidity;BME280_pressure;Samples;Min_cycle;Max_cycle;Signal;HPM_P1;HPM_P2
2024/03/09 00:00:03;;;;;;;35.13;28.57;;;2.40;79.90;;;;;;5076244;28;20178;-86
2024/03/09 00:02:28;;;;;;;33.60;27.67;;;2.40;79.90;;;;;;5075997;28;20214;-84
2024/03/09 00:04:55;;;;;;;37.57;29.00;;;2.40;80.00;;;;;;5075344;28;20550;-86
2024/03/09 00:07:21;;;;;;;34.67;29.13;;;2.30;79.90;;;;;;5094469;28;20170;-85
2024/03/09 00:09:46;;;;;;;38.83;29.10;;;2.40;79.90;;;;;;5094104;28;20175;-86
2024/03/09 00:12:14;;;;;;;34.10;28.70;;;2.30;80.00;;;;;;5094382;28;20194;-85
2024/03/09 00:14:41;;;;;;;32.23;27.73;;;2.30;80.00;;;;;;5094092;28;20170;-85
2024/03/09 00:17:06;;;;;;;33.97;28.93;;;2.30;80.10;;;;;;5075709;28;20183;-86
2024/03/09 00:19:32;;;;;;;35.17;28.73;;;2.30;79.90;;;;;;5075782;28;20530;-86
2024/03/09 00:21:58;;;;;;;36.37;29.13;;;2.40;79.70;;;;;;5093721;28;20205;-86
2024/03/09 00:24:24;;;;;;;34.17;28.70;;;2.40;79.60;;;;;;5075723;28;20170;-84
2024/03/09 00:26:49;;;;;;;39.93;29.23;;;2.40;79.60;;;;;;5093992;28;20171;-86
2024/03/09 00:29:15;;;;;;;32.37;28.87;;;2.30;79.50;;;;;;5093897;28;20301;-86
2024/03/09 00:31:40;;;;;;;30.20;26.00;;;2.40;79.50;;;;;;5093843;28;20198;-86
2024/03/09 00:34:07;;;;;;;32.57;28.83;;;2.30;79.40;;;;;;5075602;28;20184;-85
2024/03/09 00:36:33;;;;;;;33.53;28.03;;;2.30;79.50;;;;;;5094076;28;20261;-85
2024/03/09 00:38:58;;;;;;;35.47;28.97;;;2.30;79.50;;;;;;5075474;28;20206;-86
2024/03/09 00:41:24;;;;;;;37.27;27.77;;;2.30;79.40;;;;;;5075369;28;20194;-85
2024/03/09 00:43:54;;;;;;;32.80;27.40;;;2.30;79.40;;;;;;5093646;28;20169;-87
2024/03/09 00:46:20;;;;;;;38.47;30.13;;;2.40;79.30;;;;;;5094057;28;20517;-85
2024/03/09 00:48:45;;;;;;;37.03;29.77;;;2.40;79.20;;;;;;5075434;28;20174;-86
2024/03/09 00:51:11;;;;;;;38.00;28.97;;;2.40;79.00;;;;;;5093597;28;20261;-85
2024/03/09 00:53:36;;;;;;;32.17;28.27;;;2.40;79.00;;;;;;5075290;28;20255;-85
2024/03/09 00:56:02;;;;;;;36.40;29.37;;;2.40;79.00;;;;;;5075378;28;20198;-86
2024/03/09 00:58:28;;;;;;;32.57;28.03;;;2.40;79.10;;;;;;5075366;28;20182;-86
2024/03/09 01:00:53;;;;;;;49.70;43.20;;;2.40;79.10;;;;;;5075338;28;20198;-85
2024/03/09 01:03:19;;;;;;;47.33;41.17;;;2.40;79.00;;;;;;5093263;28;20197;-86
2024/03/09 01:05:44;;;;;;;44.80;40.13;;;2.40;79.10;;;;;;5093451;28;20179;-86
2024/03/09 01:08:16;;;;;;;43.70;39.37;;;2.30;79.20;;;;;;5093256;28;20171;-85
2024/03/09 01:10:41;;;;;;;45.30;40.67;;;2.30;79.20;;;;;;5075138;28;20159;-86
2024/03/09 01:13:08;;;;;;;43.97;39.33;;;2.30;79.10;;;;;;5093687;28;20191;-86
2024/03/09 01:15:35;;;;;;;44.93;40.40;;;2.30;79.10;;;;;;5075125;28;20528;-86
2024/03/09 01:18:01;;;;;;;44.23;39.80;;;2.30;79.00;;;;;;5097768;28;20166;-86
2024/03/09 01:20:27;;;;;;;44.53;40.20;;;2.30;79.10;;;;;;5097549;28;20212;-86
2024/03/09 01:22:53;;;;;;;45.80;40.80;;;2.30;79.10;;;;;;5097596;28;20201;-85
2024/03/09 01:25:19;;;;;;;42.70;38.40;;;2.40;78.70;;;;;;5097337;28;20166;-86
2024/03/09 01:27:46;;;;;;;41.93;37.57;;;2.40;78.50;;;;;;5079282;28;20733;-86
2024/03/09 01:30:12;;;;;;;41.70;37.53;;;2.40;78.30;;;;;;5079135;28;20560;-85
2024/03/09 01:32:40;;;;;;;30.33;26.87;;;2.50;78.20;;;;;;5097178;28;20194;-86
2024/03/09 01:35:07;;;;;;;30.93;27.60;;;2.40;78.10;;;;;;5078972;28;20558;-87
2024/03/09 01:37:33;;;;;;;32.10;25.97;;;2.40;78.00;;;;;;5097143;28;20166;-87
2024/03/09 01:39:58;;;;;;;43.67;39.53;;;2.40;78.10;;;;;;5078952;28;20186;-86
2024/03/09 01:42:26;;;;;;;44.63;40.10;;;2.40;78.20;;;;;;5078673;28;20595;-87
2024/03/09 01:44:52;;;;;;;41.27;37.03;;;2.40;78.10;;;;;;5097157;28;20189;-87
2024/03/09 01:47:21;;;;;;;49.10;43.67;;;2.40;78.10;;;;;;5097605;28;20166;-86
2024/03/09 01:49:47;;;;;;;47.10;42.40;;;2.40;78.00;;;;;;5097422;28;20712;-86
2024/03/09 01:52:13;;;;;;;47.43;42.60;;;2.40;78.00;;;;;;5096725;28;20218;-87
2024/03/09 01:54:41;;;;;;;47.00;42.17;;;2.40;77.90;;;;;;5097382;28;20185;-84
2024/03/09 01:57:07;;;;;;;45.40;40.80;;;2.40;78.00;;;;;;5078658;28;20229;-87
2024/03/09 01:59:33;;;;;;;46.87;42.07;;;2.40;78.10;;;;;;5096873;28;20530;-86
2024/03/09 02:02:01;;;;;;;45.50;41.07;;;2.40;78.00;;;;;;5096754;28;20288;-86
2024/03/09 02:04:28;;;;;;;45.10;40.30;;;2.30;78.30;;;;;;5078604;28;20224;-86
2024/03/09 02:06:55;;;;;;;44.30;40.00;;;2.30;78.50;;;;;;5096655;28;20166;-85
2024/03/09 02:09:21;;;;;;;43.50;39.40;;;2.30;78.40;;;;;;5096662;28;20198;-86
2024/03/09 02:11:47;;;;;;;48.03;43.13;;;2.30;78.40;;;;;;5096860;28;20243;-85
2024/03/09 02:14:14;;;;;;;43.63;39.23;;;2.30;78.30;;;;;;5079900;28;20273;-85
2024/03/09 02:16:41;;;;;;;43.63;39.20;;;2.30;78.30;;;;;;5079786;28;20179;-87
2024/03/09 02:19:13;;;;;;;46.73;41.97;;;2.30;78.20;;;;;;5080019;28;20291;-86
2024/03/09 02:21:39;;;;;;;41.50;37.80;;;2.30;78.20;;;;;;5080171;28;20242;-88
2024/03/09 02:24:09;;;;;;;45.03;40.20;;;2.30;78.10;;;;;;5080102;28;20557;-86
2024/03/09 02:26:39;;;;;;;46.70;41.37;;;2.40;78.10;;;;;;5098019;28;20642;-86
2024/03/09 02:29:09;;;;;;;46.43;41.50;;;2.30;78.10;;;;;;5079444;28;20661;-86
2024/03/09 02:31:36;;;;;;;32.97;29.33;;;2.30;78.10;;;;;;5080158;28;20167;-87
2024/03/09 02:34:02;;;;;;;41.23;31.17;;;2.30;78.10;;;;;;5079859;28;20189;-85
2024/03/09 02:36:29;;;;;;;44.03;30.77;;;2.30;78.10;;;;;;5079749;28;20179;-88
2024/03/09 02:38:56;;;;;;;43.03;32.13;;;2.30;78.20;;;;;;5079945;28;20625;-87
2024/03/09 02:41:24;;;;;;;38.67;31.30;;;2.30;78.20;;;;;;5079515;28;20262;-85
2024/03/09 02:43:50;;;;;;;36.67;30.30;;;2.30;78.30;;;;;;5079581;28;20175;-88
2024/03/09 02:46:16;;;;;;;38.13;30.67;;;2.20;78.40;;;;;;5098163;28;20634;-87
2024/03/09 02:48:43;;;;;;;38.33;30.67;;;2.20;78.60;;;;;;5098345;28;20239;-88
2024/03/09 02:51:09;;;;;;;35.90;29.63;;;2.20;78.80;;;;;;5098775;28;20265;-87
2024/03/09 02:53:35;;;;;;;41.83;31.07;;;2.10;79.00;;;;;;5098671;28;20286;-85
2024/03/09 02:56:03;;;;;;;39.30;30.57;;;2.10;79.00;;;;;;5079948;28;20179;-86
2024/03/09 02:58:29;;;;;;;36.07;29.83;;;2.10;79.10;;;;;;5098417;28;20189;-85
2024/03/09 03:00:55;;;;;;;36.17;30.63;;;2.10;79.00;;;;;;5098519;28;20663;-87
2024/03/09 03:06:05;;;;;;;38.60;29.20;;;2.00;79.10;;;;;;5098873;28;20640;-87
2024/03/09 03:08:30;;;;;;;37.00;31.47;;;2.00;79.30;;;;;;5098427;28;20177;-87
2024/03/09 03:10:56;;;;;;;38.70;29.27;;;2.00;79.50;;;;;;5098769;28;20662;-86
2024/03/09 03:13:21;;;;;;;38.77;30.00;;;1.90;79.70;;;;;;5080028;28;20209;-87
2024/03/09 03:15:47;;;;;;;34.27;29.03;;;1.90;79.80;;;;;;5098345;28;20186;-87
2024/03/09 03:18:14;;;;;;;34.97;29.67;;;1.80;80.00;;;;;;5098566;28;20181;-88
2024/03/09 03:20:39;;;;;;;36.07;29.57;;;1.80;80.40;;;;;;5079955;28;20554;-86
2024/03/09 03:23:05;;;;;;;35.70;29.57;;;1.80;80.40;;;;;;5080597;28;20191;-86
2024/03/09 03:25:31;;;;;;;40.30;30.37;;;1.80;80.30;;;;;;5098834;28;20171;-87
2024/03/09 03:27:57;;;;;;;35.80;29.10;;;1.80;80.20;;;;;;5098093;28;20228;-86
2024/03/09 03:30:24;;;;;;;35.83;30.23;;;1.90;80.00;;;;;;5079867;28;20179;-86
2024/03/09 03:32:50;;;;;;;37.67;29.10;;;1.90;80.10;;;;;;5098163;28;20188;-86
2024/03/09 03:35:17;;;;;;;40.33;29.50;;;1.90;80.20;;;;;;5097999;28;20304;-87
2024/03/09 03:37:45;;;;;;;34.00;27.90;;;1.80;80.40;;;;;;5079631;28;20288;-86
2024/03/09 03:40:14;;;;;;;44.67;39.13;;;1.80;80.40;;;;;;5097309;28;20712;-87
2024/03/09 03:42:40;;;;;;;48.23;40.53;;;1.80;80.50;;;;;;5079876;28;20648;-86
2024/03/09 03:45:11;;;;;;;50.30;42.50;;;1.80;80.50;;;;;;5097555;28;20240;-88
2024/03/09 03:47:37;;;;;;;46.03;41.20;;;1.80;80.40;;;;;;5097378;28;20158;-88
2024/03/09 03:50:02;;;;;;;46.67;41.57;;;1.80;80.50;;;;;;5097773;28;20589;-88
2024/03/09 03:52:28;;;;;;;43.83;39.03;;;1.80;80.50;;;;;;5097452;28;20211;-88
2024/03/09 03:54:53;;;;;;;46.33;40.10;;;1.80;80.60;;;;;;5079930;28;20270;-88
2024/03/09 03:57:19;;;;;;;43.77;39.23;;;1.80;80.60;;;;;;5079044;28;20185;-87
2024/03/09 03:59:44;;;;;;;45.77;40.97;;;1.80;80.50;;;;;;5097860;28;20699;-87
2024/03/09 04:02:10;;;;;;;47.80;40.43;;;1.80;80.50;;;;;;5079608;28;20210;-87
2024/03/09 04:04:36;;;;;;;44.20;39.50;;;1.80;80.60;;;;;;5097804;28;20187;-87
2024/03/09 04:07:04;;;;;;;44.30;39.37;;;1.70;80.70;;;;;;5079064;28;20166;-88
2024/03/09 04:09:30;;;;;;;43.77;39.00;;;1.80;80.70;;;;;;5097437;28;20631;-88
2024/03/09 04:11:56;;;;;;;43.23;38.60;;;1.70;80.90;;;;;;5079245;28;20194;-87
2024/03/09 04:14:26;;;;;;;44.40;39.53;;;1.70;81.00;;;;;;5096689;28;20224;-85
2024/03/09 04:16:53;;;;;;;42.67;37.57;;;1.70;81.20;;;;;;5094332;28;20171;-85
2024/03/09 04:19:18;;;;;;;43.33;38.67;;;1.60;81.40;;;;;;5094455;28;20699;-85
2024/03/09 04:21:44;;;;;;;40.80;36.47;;;1.60;81.50;;;;;;5075737;28;20202;-85
2024/03/09 04:24:10;;;;;;;41.97;37.60;;;1.60;81.60;;;;;;5094136;28;20258;-85
2024/03/09 04:26:36;;;;;;;47.03;40.70;;;1.70;81.60;;;;;;5075842;28;20170;-85
2024/03/09 04:29:02;;;;;;;42.93;38.37;;;1.70;81.50;;;;;;5094072;28;20167;-85
2024/03/09 04:31:32;;;;;;;40.40;36.20;;;1.70;81.60;;;;;;5094901;28;20574;-84
2024/03/09 04:34:01;;;;;;;44.77;39.93;;;1.70;81.50;;;;;;5076170;28;20186;-84
2024/03/09 04:36:29;;;;;;;44.30;39.63;;;1.70;81.60;;;;;;5094427;28;20181;-88
2024/03/09 04:39:00;;;;;;;47.67;38.10;;;1.60;81.70;;;;;;5094522;28;20236;-83
2024/03/09 04:41:28;;;;;;;43.87;38.27;;;1.50;81.90;;;;;;5094406;28;20177;-85
2024/03/09 04:43:54;;;;;;;33.90;26.00;;;1.50;82.10;;;;;;5094203;28;20630;-86
2024/03/09 04:46:19;;;;;;;39.50;29.70;;;1.60;82.10;;;;;;5094343;28;20228;-85
2024/03/09 04:48:45;;;;;;;40.93;30.77;;;1.60;82.00;;;;;;5094439;28;20638;-85
2024/03/09 04:51:12;;;;;;;39.73;31.70;;;1.60;82.00;;;;;;5075626;28;20189;-87
2024/03/09 04:53:38;;;;;;;48.20;32.63;;;1.50;82.20;;;;;;5093938;28;20289;-85
2024/03/09 04:56:04;;;;;;;41.70;31.63;;;1.60;82.20;;;;;;5093958;28;20251;-85
2024/03/09 04:58:29;;;;;;;36.80;29.23;;;1.50;82.40;;;;;;5075810;28;20177;-85
2024/03/09 05:00:55;;;;;;;38.10;30.33;;;1.40;82.60;;;;;;5075871;28;20199;-84
2024/03/09 05:03:20;;;;;;;37.70;29.63;;;1.40;82.80;;;;;;5076030;28;20198;-85
2024/03/09 05:05:46;;;;;;;37.90;31.13;;;1.40;83.00;;;;;;5075801;28;20178;-86
2024/03/09 05:08:13;;;;;;;44.00;31.33;;;1.50;83.00;;;;;;5094169;28;20166;-85
2024/03/09 05:10:38;;;;;;;43.63;32.10;;;1.50;82.90;;;;;;5093891;28;20166;-86
2024/03/09 05:13:06;;;;;;;39.07;29.87;;;1.50;82.90;;;;;;5075578;28;20243;-85
2024/03/09 05:15:32;;;;;;;44.27;30.63;;;1.40;83.00;;;;;;5075895;28;20174;-85
2024/03/09 05:17:59;;;;;;;45.77;31.70;;;1.40;83.10;;;;;;5075834;28;20188;-86
2024/03/09 05:20:25;;;;;;;46.40;30.90;;;1.40;83.30;;;;;;5093981;28;20167;-84
2024/03/09 05:23:03;;;;;;;42.23;30.60;;;1.40;83.40;;;;;;5075468;28;20214;-87
2024/03/09 05:25:30;;;;;;;45.80;30.63;;;1.30;83.50;;;;;;5075768;28;20165;-86
2024/03/09 05:27:57;;;;;;;38.10;28.83;;;1.30;83.60;;;;;;5094200;28;20167;-85
2024/03/09 05:30:27;;;;;;;42.33;31.97;;;1.30;83.80;;;;;;5093662;28;20665;-85
2024/03/09 05:33:06;;;;;;;46.33;32.00;;;1.40;83.70;;;;;;5093532;28;20196;-86
2024/03/09 05:35:34;;;;;;;47.97;34.83;;;1.40;83.70;;;;;;5093685;28;20157;-85
2024/03/09 05:38:00;;;;;;;44.67;32.70;;;1.40;83.70;;;;;;5075577;28;20174;-85
2024/03/09 05:40:27;;;;;;;44.47;31.53;;;1.40;83.70;;;;;;5094021;28;20586;-86
2024/03/09 05:42:55;;;;;;;42.97;33.10;;;1.40;83.80;;;;;;5075319;28;20724;-85
2024/03/09 05:45:22;;;;;;;45.30;33.53;;;1.30;83.90;;;;;;5093609;28;20170;-86
2024/03/09 05:47:54;;;;;;;40.60;30.33;;;1.30;84.00;;;;;;5075475;28;20175;-85
2024/03/09 05:50:28;;;;;;;47.27;39.33;;;1.30;84.20;;;;;;5093872;28;20270;-87
2024/03/09 05:52:54;;;;;;;41.80;35.17;;;1.30;84.10;;;;;;5075341;28;20213;-86
2024/03/09 05:55:21;;;;;;;50.27;39.30;;;1.30;84.10;;;;;;5093391;28;20258;-84
2024/03/09 05:57:50;;;;;;;54.53;40.37;;;1.30;84.20;;;;;;5075419;28;20267;-87
2024/03/09 06:00:19;;;;;;;48.50;42.30;;;1.30;84.40;;;;;;5093593;28;20197;-86
2024/03/09 06:02:46;;;;;;;48.70;39.20;;;1.30;84.50;;;;;;5093651;28;20205;-85
2024/03/09 06:05:12;;;;;;;51.17;38.33;;;1.30;84.50;;;;;;5097322;28;20663;-85
2024/03/09 06:07:44;;;;;;;49.57;37.00;;;1.40;84.50;;;;;;5097751;28;20174;-84
2024/03/09 06:10:14;;;;;;;45.23;38.50;;;1.40;84.50;;;;;;5097120;28;20670;-86
2024/03/09 06:12:49;;;;;;;47.20;36.67;;;1.40;84.50;;;;;;5097132;28;20244;-87
2024/03/09 06:15:16;;;;;;;47.60;37.67;;;1.50;84.40;;;;;;5097264;28;20163;-85
2024/03/09 06:17:48;;;;;;;44.90;36.67;;;1.50;84.40;;;;;;5078903;28;20179;-86
2024/03/09 06:20:15;;;;;;;47.93;37.07;;;1.60;84.30;;;;;;5078885;28;20596;-85
2024/03/09 06:22:45;;;;;;;54.43;39.87;;;1.60;84.30;;;;;;5096786;28;20255;-85
2024/03/09 06:25:12;;;;;;;54.00;41.00;;;1.60;84.40;;;;;;5096906;28;20147;-86
2024/03/09 06:27:39;;;;;;;48.20;34.03;;;1.60;84.30;;;;;;5078770;28;20185;-85
2024/03/09 06:30:08;;;;;;;47.70;34.27;;;1.70;84.30;;;;;;5078629;28;20721;-86
2024/03/09 06:32:37;;;;;;;44.43;37.43;;;1.70;84.30;;;;;;5096967;28;20190;-86
2024/03/09 06:35:03;;;;;;;56.00;37.67;;;1.70;84.20;;;;;;5078403;28;20173;-84
2024/03/09 06:37:28;;;;;;;45.57;33.97;;;1.70;84.20;;;;;;5078680;28;20181;-86
2024/03/09 06:39:54;;;;;;;46.70;36.60;;;1.80;84.00;;;;;;5078544;28;20242;-88
2024/03/09 06:42:21;;;;;;;52.97;38.30;;;1.80;84.00;;;;;;5096621;28;20198;-85
2024/03/09 06:44:48;;;;;;;41.47;33.90;;;1.80;84.10;;;;;;5078636;28;20178;-85
2024/03/09 06:47:14;;;;;;;46.70;35.87;;;1.80;84.20;;;;;;5096773;28;20162;-85
2024/03/09 06:49:40;;;;;;;48.57;37.37;;;1.90;84.10;;;;;;5079752;28;20178;-86
2024/03/09 06:52:06;;;;;;;47.20;38.80;;;1.90;84.10;;;;;;5078220;28;20293;-85
2024/03/09 06:54:32;;;;;;;54.60;36.70;;;1.90;84.10;;;;;;5096502;28;20540;-85
2024/03/09 06:56:58;;;;;;;51.47;39.17;;;2.00;84.10;;;;;;5096276;28;20175;-86
2024/03/09 06:59:24;;;;;;;43.50;34.50;;;2.00;83.80;;;;;;5096932;28;20206;-87
2024/03/09 07:01:53;;;;;;;37.77;33.03;;;2.10;83.60;;;;;;5096218;28;20308;-86
2024/03/09 07:04:18;;;;;;;45.17;32.53;;;2.10;83.60;;;;;;5078465;28;20531;-86
2024/03/09 07:06:45;;;;;;;42.10;33.47;;;2.20;83.40;;;;;;5078228;28;20178;-85
2024/03/09 07:09:11;;;;;;;38.83;32.73;;;2.20;83.10;;;;;;5096392;28;20546;-85
2024/03/09 07:11:38;;;;;;;45.90;36.37;;;2.30;83.20;;;;;;5078098;28;20182;-86
2024/03/09 07:14:04;;;;;;;45.53;37.97;;;2.30;83.10;;;;;;5078043;28;20178;-85
2024/03/09 07:16:29;;;;;;;56.20;42.00;;;2.40;83.00;;;;;;5095889;28;20183;-85
2024/03/09 07:18:56;;;;;;;49.50;37.73;;;2.40;82.90;;;;;;5095953;28;20179;-85
2024/03/09 07:21:23;;;;;;;50.67;40.13;;;2.50;82.80;;;;;;5095874;28;20679;-86
2024/03/09 07:23:50;;;;;;;46.03;36.20;;;2.50;82.80;;;;;;5078055;28;20187;-85
2024/03/09 07:26:16;;;;;;;39.00;33.90;;;2.50;82.70;;;;;;5077720;28;20171;-85
2024/03/09 07:28:43;;;;;;;47.23;38.00;;;2.60;82.60;;;;;;5095801;28;20181;-85
2024/03/09 07:31:09;;;;;;;45.70;37.03;;;2.60;82.60;;;;;;5096037;28;20175;-86
2024/03/09 07:33:35;;;;;;;37.10;30.50;;;2.60;82.70;;;;;;5095407;28;20198;-84
2024/03/09 07:36:01;;;;;;;48.27;39.40;;;2.70;82.60;;;;;;5095844;28;20175;-87
2024/03/09 07:38:27;;;;;;;40.70;35.17;;;2.80;82.60;;;;;;5095770;28;20178;-86
2024/03/09 07:40:53;;;;;;;39.50;32.43;;;2.80;82.30;;;;;;5077257;28;20178;-84
2024/03/09 07:43:20;;;;;;;51.17;40.63;;;2.90;82.30;;;;;;5096243;28;20197;-85
2024/03/09 07:45:46;;;;;;;45.47;31.27;;;2.90;82.20;;;;;;5077316;28;20227;-85
2024/03/09 07:48:16;;;;;;;43.27;29.77;;;3.00;82.40;;;;;;5077183;28;20557;-86
2024/03/09 07:50:43;;;;;;;42.67;31.67;;;3.10;81.90;;;;;;5095544;28;20179;-85
2024/03/09 07:53:08;;;;;;;44.23;30.03;;;3.20;82.10;;;;;;5096140;28;20206;-86
2024/03/09 07:55:34;;;;;;;38.60;27.87;;;3.30;81.90;;;;;;5096368;28;20174;-87
2024/03/09 07:58:00;;;;;;;31.83;23.47;;;3.20;81.50;;;;;;5095909;28;20175;-86
2024/03/09 08:00:33;;;;;;;37.43;25.47;;;3.30;81.40;;;;;;5095995;28;20631;-86
2024/03/09 08:02:59;;;;;;;32.17;26.53;;;3.40;81.20;;;;;;5077912;28;20217;-87
2024/03/09 08:05:26;;;;;;;42.97;31.20;;;3.50;81.40;;;;;;5095755;28;20307;-89
2024/03/09 08:07:52;;;;;;;46.07;33.67;;;3.60;81.00;;;;;;5077586;28;20181;-87
2024/03/09 08:10:21;;;;;;;45.00;33.30;;;3.70;81.10;;;;;;5078167;28;20171;-87
2024/03/09 08:12:47;;;;;;;49.03;32.60;;;3.80;81.20;;;;;;5077081;28;20200;-87
2024/03/09 08:15:14;;;;;;;38.77;28.60;;;3.90;80.90;;;;;;5076961;28;20643;-88
2024/03/09 08:17:40;;;;;;;47.50;34.77;;;3.90;80.10;;;;;;5077238;28;20712;-87
2024/03/09 08:20:06;;;;;;;30.33;26.87;;;4.00;80.80;;;;;;5095671;28;20175;-88
2024/03/09 08:22:40;;;;;;;38.53;29.37;;;4.10;80.10;;;;;;5077123;28;20219;-87
2024/03/09 08:25:11;;;;;;;45.47;32.53;;;4.20;80.10;;;;;;5076765;28;20170;-87
2024/03/09 08:27:41;;;;;;;46.60;33.10;;;4.30;80.00;;;;;;5076657;28;20253;-88
2024/03/09 08:30:17;;;;;;;43.90;33.97;;;4.30;79.80;;;;;;5094704;28;20167;-87
2024/03/09 08:32:44;;;;;;;38.40;29.03;;;4.40;79.90;;;;;;5095018;28;20283;-87
2024/03/09 08:35:20;;;;;;;38.70;29.77;;;4.50;79.80;;;;;;5079243;28;20182;-86
2024/03/09 08:37:46;;;;;;;45.33;34.70;;;4.60;78.80;;;;;;5077397;28;20171;-87
2024/03/09 08:40:17;;;;;;;46.23;33.63;;;4.60;79.30;;;;;;5096049;28;20205;-85
2024/03/09 08:42:50;;;;;;;47.60;35.73;;;4.70;78.70;;;;;;5096176;28;20234;-86
2024/03/09 08:45:16;;;;;;;44.80;34.77;;;4.80;79.00;;;;;;5077554;28;20278;-84
2024/03/09 08:47:41;;;;;;;45.60;35.33;;;4.90;79.20;;;;;;5077129;28;20254;-86
2024/03/09 08:50:11;;;;;;;44.23;34.00;;;5.10;79.40;;;;;;5096260;28;20174;-86
2024/03/09 08:52:38;;;;;;;43.40;34.13;;;5.10;78.80;;;;;;5096159;28;20206;-86
2024/03/09 08:55:07;;;;;;;41.70;32.50;;;5.20;78.40;;;;;;5095224;28;20592;-86
2024/03/09 08:57:33;;;;;;;50.37;31.87;;;5.20;77.90;;;;;;5076750;28;20181;-86
2024/03/09 09:00:05;;;;;;;48.30;41.60;;;5.20;77.70;;;;;;5095073;28;20221;-87
2024/03/09 09:02:31;;;;;;;49.27;41.97;;;5.30;78.00;;;;;;5076503;28;20234;-86
2024/03/09 09:04:56;;;;;;;47.80;41.17;;;5.40;78.10;;;;;;5094521;28;20174;-86
2024/03/09 09:07:23;;;;;;;49.57;44.13;;;5.50;78.20;;;;;;5094386;28;20223;-86
2024/03/09 09:09:49;;;;;;;47.30;41.23;;;5.70;77.60;;;;;;5076608;28;20179;-87
2024/03/09 09:12:17;;;;;;;49.90;43.23;;;5.70;76.80;;;;;;5076334;28;20194;-86
2024/03/09 09:14:43;;;;;;;46.20;41.23;;;5.70;76.40;;;;;;5076029;28;20219;-88
2024/03/09 09:17:09;;;;;;;45.50;39.93;;;5.80;77.30;;;;;;5076745;28;20179;-87
2024/03/09 09:19:35;;;;;;;46.20;41.37;;;6.00;76.90;;;;;;5095019;28;20552;-86
2024/03/09 09:22:00;;;;;;;41.10;36.63;;;6.10;76.60;;;;;;5095843;28;20202;-86
2024/03/09 09:24:26;;;;;;;44.37;39.77;;;6.10;75.90;;;;;;5076805;28;20224;-86
2024/03/09 09:26:52;;;;;;;44.50;39.53;;;6.10;75.40;;;;;;5076782;28;20257;-87
2024/03/09 09:29:18;;;;;;;45.37;40.37;;;6.30;75.40;;;;;;5095093;28;20167;-85
2024/03/09 09:31:43;;;;;;;46.43;41.33;;;6.30;75.30;;;;;;5095018;28;20201;-86
2024/03/09 09:34:12;;;;;;;47.67;42.80;;;6.40;74.80;;;;;;5094777;28;20269;-85
2024/03/09 09:36:38;;;;;;;48.13;40.73;;;6.50;75.00;;;;;;5076843;28;20194;-86
2024/03/09 09:39:03;;;;;;;50.90;44.60;;;6.60;74.70;;;;;;5099454;28;20179;-86
2024/03/09 09:41:29;;;;;;;49.77;44.67;;;6.70;74.70;;;;;;5098954;28;20212;-85
2024/03/09 09:43:59;;;;;;;49.70;44.60;;;6.80;74.70;;;;;;5080744;28;20166;-86
2024/03/09 09:46:29;;;;;;;48.30;43.30;;;6.80;74.20;;;;;;5098909;28;20241;-86
2024/03/09 09:48:55;;;;;;;50.90;45.53;;;6.80;74.10;;;;;;5098727;28;20635;-86
2024/03/09 09:51:22;;;;;;;49.73;44.63;;;6.90;74.10;;;;;;5098561;28;20178;-88
2024/03/09 09:53:49;;;;;;;48.40;43.03;;;7.10;74.00;;;;;;5080837;28;20171;-87
2024/03/09 09:56:15;;;;;;;48.17;43.07;;;7.20;73.30;;;;;;5080309;28;20315;-85
2024/03/09 09:58:41;;;;;;;44.57;40.33;;;7.20;73.20;;;;;;5099383;28;20643;-84
2024/03/09 10:01:08;;;;;;;48.27;43.37;;;7.30;72.40;;;;;;5080266;28;20289;-87
2024/03/09 10:03:34;;;;;;;47.10;42.43;;;7.30;72.70;;;;;;5080220;28;20187;-87
2024/03/09 10:05:59;;;;;;;51.43;45.27;;;7.40;72.70;;;;;;5098932;28;20179;-87
2024/03/09 10:08:26;;;;;;;47.23;42.33;;;7.40;72.50;;;;;;5080242;28;20177;-86
2024/03/09 10:10:52;;;;;;;51.07;45.57;;;7.50;72.80;;;;;;5080438;28;20224;-86
2024/03/09 10:13:18;;;;;;;50.97;45.63;;;7.60;72.50;;;;;;5080026;28;20195;-86
2024/03/09 10:15:49;;;;;;;39.30;35.07;;;7.80;72.60;;;;;;5098369;28;20236;-87
2024/03/09 10:18:19;;;;;;;40.73;36.30;;;8.00;72.10;;;;;;5079940;28;20171;-86
2024/03/09 10:20:44;;;;;;;39.20;34.87;;;8.10;71.40;;;;;;5098208;28;20166;-86
2024/03/09 10:23:13;;;;;;;37.60;32.80;;;8.30;71.30;;;;;;5098491;28;20573;-87
2024/03/09 10:25:41;;;;;;;42.40;35.33;;;8.30;69.90;;;;;;5098243;28;20170;-88
2024/03/09 10:28:10;;;;;;;40.87;36.27;;;8.30;70.80;;;;;;5079891;28;20232;-87
2024/03/09 10:30:37;;;;;;;34.53;30.93;;;8.30;70.90;;;;;;5098760;28;20669;-85
2024/03/09 10:33:09;;;;;;;33.50;30.17;;;8.30;70.10;;;;;;5079986;28;20658;-85
2024/03/09 10:35:40;;;;;;;35.67;31.87;;;8.20;69.90;;;;;;5097990;28;20166;-87
2024/03/09 10:38:07;;;;;;;36.23;32.53;;;8.20;69.10;;;;;;5080177;28;20216;-86
2024/03/09 10:40:34;;;;;;;36.27;32.47;;;8.20;68.90;;;;;;5079872;28;20167;-88
2024/03/09 10:43:02;;;;;;;37.03;33.13;;;8.20;70.20;;;;;;5097977;28;20198;-86
2024/03/09 10:45:33;;;;;;;36.40;32.53;;;8.20;70.00;;;;;;5079700;28;20658;-87
2024/03/09 10:48:05;;;;;;;47.90;43.30;;;8.30;69.90;;;;;;5079816;28;20174;-87
2024/03/09 10:50:46;;;;;;;49.47;44.63;;;8.50;70.20;;;;;;5079194;28;20258;-86
2024/03/09 10:53:35;;;;;;;53.83;48.93;;;8.60;68.50;;;;;;5079125;28;20214;-85
2024/03/09 10:56:15;;;;;;;54.07;49.13;;;8.60;68.20;;;;;;5079488;28;20187;-87
2024/03/09 10:58:41;;;;;;;54.93;49.73;;;8.60;67.60;;;;;;5080120;28;20166;-85
2024/03/09 11:01:08;;;;;;;54.60;49.53;;;8.60;68.40;;;;;;5098183;28;20198;-86
2024/03/09 11:03:35;;;;;;;49.00;44.20;;;8.80;69.60;;;;;;5097957;28;20183;-86
2024/03/09 11:06:00;;;;;;;50.00;45.23;;;8.90;67.70;;;;;;5098373;28;20246;-86
2024/03/09 11:08:26;;;;;;;51.93;46.77;;;8.90;67.70;;;;;;5079234;28;20198;-85
2024/03/09 11:10:53;;;;;;;51.80;46.80;;;9.00;67.70;;;;;;5098481;28;20227;-85
2024/03/09 11:13:19;;;;;;;50.20;45.17;;;9.10;68.10;;;;;;5098216;28;20231;-86
2024/03/09 11:15:54;;;;;;;53.17;48.17;;;9.20;67.70;;;;;;5079729;28;20174;-85
2024/03/09 11:18:21;;;;;;;39.83;35.73;;;9.10;67.10;;;;;;5097989;28;20154;-86
2024/03/09 11:20:59;;;;;;;37.40;33.40;;;9.20;67.50;;;;;;5079572;28;20178;-86
2024/03/09 11:23:25;;;;;;;36.87;33.13;;;9.00;66.40;;;;;;5079819;28;20190;-84
2024/03/09 11:25:56;;;;;;;37.27;33.30;;;8.80;66.90;;;;;;5097746;28;20170;-85
2024/03/09 11:28:24;;;;;;;39.27;35.00;;;8.80;67.20;;;;;;5079640;28;20578;-87
2024/03/09 11:31:11;;;;;;;37.93;33.17;;;8.80;67.70;;;;;;5079732;28;20204;-88
2024/03/09 11:33:44;;;;;;;39.17;34.83;;;8.90;67.50;;;;;;5079325;28;20240;-86
2024/03/09 11:37:00;;;;;;;39.77;35.57;;;8.90;68.70;;;;;;5097963;28;20221;-86
2024/03/09 11:39:28;;;;;;;37.87;34.00;;;8.80;67.40;;;;;;5078619;28;20175;-88
2024/03/09 11:41:57;;;;;;;37.20;33.37;;;8.80;67.70;;;;;;5097258;28;20199;-85
2024/03/09 11:44:25;;;;;;;39.00;34.97;;;9.00;66.80;;;;;;5079398;28;20224;-86
2024/03/09 11:46:52;;;;;;;39.03;34.27;;;9.20;67.90;;;;;;5097145;28;20174;-85
2024/03/09 11:49:18;;;;;;;39.73;35.63;;;9.30;66.20;;;;;;5078932;28;20175;-85
2024/03/09 11:51:44;;;;;;;40.93;36.63;;;9.30;67.40;;;;;;5096879;28;20206;-86
2024/03/09 11:54:11;;;;;;;39.37;35.27;;;9.50;68.10;;;;;;5097491;28;20178;-86
2024/03/09 11:56:38;;;;;;;40.20;35.83;;;9.30;65.80;;;;;;5098063;28;20178;-86
2024/03/09 11:59:06;;;;;;;35.40;31.83;;;9.20;66.10;;;;;;5097604;28;20194;-86
2024/03/09 12:01:34;;;;;;;38.60;31.40;;;9.40;68.00;;;;;;5081598;28;20198;-86
2024/03/09 12:04:01;;;;;;;38.00;34.10;;;9.30;67.50;;;;;;5097737;28;20163;-86
2024/03/09 12:06:27;;;;;;;37.50;33.57;;;9.70;67.70;;;;;;5097381;28;20253;-87
2024/03/09 12:08:54;;;;;;;40.47;36.27;;;9.80;65.20;;;;;;5097237;28;20198;-87
2024/03/09 12:11:28;;;;;;;41.57;37.47;;;9.90;66.70;;;;;;5097028;28;20629;-86
2024/03/09 12:13:54;;;;;;;40.77;36.43;;;10.00;66.40;;;;;;5096997;28;20635;-85
2024/03/09 12:16:23;;;;;;;40.23;36.13;;;10.10;65.20;;;;;;5097302;28;20167;-85
2024/03/09 12:18:49;;;;;;;39.83;35.93;;;9.80;64.20;;;;;;5096672;28;20177;-86
2024/03/09 12:21:16;;;;;;;38.30;34.60;;;9.80;65.50;;;;;;5096417;28;20262;-86
2024/03/09 12:23:47;;;;;;;39.63;35.53;;;9.70;64.50;;;;;;5078182;28;20248;-87
2024/03/09 12:26:13;;;;;;;34.43;31.13;;;9.70;64.20;;;;;;5096093;28;20163;-85
2024/03/09 12:28:42;;;;;;;37.40;33.80;;;9.50;64.90;;;;;;5077746;28;20175;-88
2024/03/09 12:31:09;;;;;;;38.77;34.87;;;9.30;66.20;;;;;;5095949;28;20524;-86
2024/03/09 12:33:37;;;;;;;37.40;33.90;;;9.30;66.90;;;;;;5077081;28;20187;-87
2024/03/09 12:36:03;;;;;;;36.97;33.20;;;9.40;65.70;;;;;;5077725;28;20175;-87
2024/03/09 12:38:29;;;;;;;35.80;32.10;;;9.50;64.20;;;;;;5096645;28;20217;-86